Aurora Springs, Missouri
Current Conditions -  °F | °C
As of 8:55 PM on Wednesday 26 Nov 2014 (Local Time) from KAIZ Reporting Station
Overcast Overcast  
Wind Chill: 27°   Ceiling: 1500
Heat Index: 34°   Visibility: 9mi
Dew Point: 27°   Wind: 8mph
Humidity: 75%   Direction: 290°WNW
Pressure: 30.2"   Gusts: 20mph
Location:  38.333°N, 92.5524°W
Report Text: KAIZ 270255Z AUTO 29007G17KT 260V340 9SM OVC015 01/M03 A3020 RMK AO1 52041
Loading
Personal Weather Stations






























Interactive Weather Map New forecast layout! Learn more

10-Day Weather Forecast

Advertisements
Track Severe Weather on mobile